الصفحة الرئيسية
METAR-TAF:

METAR-TAF

مطار :

مطار طوكيو هانيدا الدولي

طوكيو-Haneda, اليابان

دائرة عرض: 35-33N, خط طول: 139-47E, ارتفاع: 5 متر

مراقبة الطقس الحالي

تاريخ ووقت الإصدار 40 دقيقة قبل الساعة 01:00UTC
ريح 11 عقدة من الجنوب
درجة الحرارة 29°درجة مئوية
الرطوبة 70%
ضغط 1006 hPa
الرؤية 10 كم أو أكثر
غيوم قليلة على ارتفاع 3000 قدم
غيوم مفككة على ارتفاع 14000 قدم

METAR: RJTT 250100Z 19011KT 9999 FEW030 BKN140 29/23 Q1006 NOSIG RMK 1CU030 7AC140 A2972

زمن: 10:40 (01:40 UTC)

توقعات

تاريخ ووقت الإصدار 2ساعات و 35 دقيقة قبل الساعة 23:05UTC
التوقعات صالحة من25 الساعة 00 UTC إلى 26 الساعة 06 UTC
ريح 12 عقدة من الجنوب
الرؤية 10 كم أو أكثر
غيوم قليلة على ارتفاع 2000 قدم

TAF: RJTT 242305Z 2500/2606 18012KT 9999 FEW020

أرصاد الطقس والتوقعات من أكثر من 4000 مطار (تقارير الطقس للمطار METAR والتنبؤ بالطقس بالمطارTAF).

المحطات المتاحة هي النقط الصفراء والحمراء على الخريطة.

حرك المؤشر فوق النقطة لمعرفة اسم المحطة.

ثم انقر لمعرفة أرصاد وتوقعات الطقس.

لتغيير الخارطة: اضغط على الأزرار الخضراء مع رمز الصليب الأسود للتكبير. على الزر الأخضر مع شرطة للتصغير، أو على الأسهم الخضراء للخرائط المجاورة.


METAR-TAF: